createdAt,value
2023-04-15T00:00:01.332Z,82.49
2023-04-15T00:02:28.597Z,82.23
2023-04-15T00:04:55.174Z,81.98
2023-04-15T00:07:21.476Z,82.51
2023-04-15T00:09:47.733Z,82.19
2023-04-15T00:12:14.019Z,81.81
2023-04-15T00:14:40.353Z,81.76
2023-04-15T00:17:06.622Z,81.68
2023-04-15T00:19:32.881Z,81.68
2023-04-15T00:21:59.377Z,81.74
2023-04-15T00:24:25.739Z,81.78
2023-04-15T00:26:52.067Z,81.84
2023-04-15T00:29:18.481Z,81.86
2023-04-15T00:31:44.827Z,81.92
2023-04-15T00:34:11.686Z,81.92
2023-04-15T00:36:37.953Z,81.91
2023-04-15T00:39:04.237Z,81.94
2023-04-15T00:41:30.510Z,82.10
2023-04-15T00:43:56.753Z,81.95
2023-04-15T00:46:23.388Z,81.94
2023-04-15T00:48:50.634Z,81.95
2023-04-15T00:51:16.929Z,82.04
2023-04-15T00:53:43.215Z,82.06
2023-04-15T00:56:09.614Z,81.98
2023-04-15T00:58:36.140Z,81.96
2023-04-15T01:01:03.214Z,81.96
2023-04-15T01:03:30.004Z,81.92
2023-04-15T01:05:56.518Z,81.92
2023-04-15T01:08:23.532Z,81.91
2023-04-15T01:10:50.170Z,81.91
2023-04-15T01:13:16.489Z,81.94
2023-04-15T01:15:43.177Z,82.06
2023-04-15T01:18:09.548Z,82.12
2023-04-15T01:20:38.094Z,82.04
2023-04-15T01:23:04.493Z,81.94
2023-04-15T01:25:34.244Z,81.95
2023-04-15T01:28:00.790Z,82.04
2023-04-15T01:30:27.434Z,82.03
2023-04-15T01:32:54.130Z,81.98
2023-04-15T01:35:22.100Z,82.25
2023-04-15T01:37:51.259Z,82.58
2023-04-15T01:40:17.800Z,82.87
2023-04-15T01:42:44.181Z,82.53
2023-04-15T01:45:10.631Z,82.32
2023-04-15T01:47:37.769Z,82.30
2023-04-15T01:50:04.691Z,82.20
2023-04-15T01:52:31.072Z,81.91
2023-04-15T01:54:57.406Z,81.63
2023-04-15T01:57:23.762Z,81.47
2023-04-15T01:59:51.291Z,81.44
2023-04-15T02:02:17.634Z,81.41
2023-04-15T02:04:44.066Z,81.34
2023-04-15T02:07:10.314Z,81.49
2023-04-15T02:09:36.688Z,81.56
2023-04-15T02:12:02.995Z,81.49
2023-04-15T02:14:29.246Z,81.41
2023-04-15T02:16:55.699Z,81.27
2023-04-15T02:19:21.997Z,81.21
2023-04-15T02:21:48.246Z,81.17
2023-04-15T02:24:17.326Z,81.16
2023-04-15T02:26:43.637Z,81.36
2023-04-15T02:29:09.893Z,81.32
2023-04-15T02:31:36.207Z,81.67
2023-04-15T02:34:02.564Z,82.07
2023-04-15T02:36:28.797Z,82.09
2023-04-15T02:38:55.219Z,81.97
2023-04-15T02:41:22.154Z,81.72
2023-04-15T02:43:48.397Z,81.19
2023-04-15T02:46:14.910Z,81.00
2023-04-15T02:48:41.275Z,81.07
2023-04-15T02:51:18.667Z,81.14
2023-04-15T02:53:45.614Z,81.24
2023-04-15T02:56:12.050Z,81.55
2023-04-15T02:58:38.972Z,81.71
2023-04-15T03:01:05.346Z,81.54
2023-04-15T03:03:31.833Z,81.39
2023-04-15T03:05:58.253Z,81.07
2023-04-15T03:08:24.614Z,80.99
2023-04-15T03:10:51.021Z,80.84
2023-04-15T03:13:17.460Z,80.81
2023-04-15T03:15:46.100Z,80.88
2023-04-15T03:18:12.517Z,81.00
2023-04-15T03:20:40.078Z,81.31
2023-04-15T03:23:06.685Z,81.61
2023-04-15T03:25:33.038Z,82.28
2023-04-15T03:28:00.041Z,83.18
2023-04-15T03:30:26.387Z,82.44
2023-04-15T03:32:52.744Z,81.91
2023-04-15T03:35:19.213Z,81.50
2023-04-15T03:37:45.485Z,81.39
2023-04-15T03:40:11.983Z,81.43
2023-04-15T03:42:38.263Z,81.42
2023-04-15T03:45:04.979Z,81.22
2023-04-15T03:47:31.223Z,81.13
2023-04-15T03:49:57.551Z,81.04
2023-04-15T03:52:23.771Z,80.99
2023-04-15T03:54:50.031Z,80.94
2023-04-15T03:57:16.247Z,80.93
2023-04-15T03:59:42.511Z,80.94
2023-04-15T04:02:08.898Z,80.95
2023-04-15T04:04:35.319Z,81.48
2023-04-15T04:07:01.659Z,82.30
2023-04-15T04:09:27.973Z,82.32
2023-04-15T04:11:54.300Z,83.47
2023-04-15T04:14:20.767Z,82.38
2023-04-15T04:16:46.984Z,83.87
2023-04-15T04:19:13.335Z,83.08
2023-04-15T04:21:39.667Z,82.78
2023-04-15T04:24:05.907Z,83.16
2023-04-15T04:26:32.130Z,84.00
2023-04-15T04:28:58.544Z,83.63
2023-04-15T04:31:25.120Z,83.76
2023-04-15T04:33:51.379Z,83.22
2023-04-15T04:36:17.742Z,83.18
2023-04-15T04:38:44.036Z,83.35
2023-04-15T04:41:10.325Z,83.42
2023-04-15T04:43:36.621Z,83.29
2023-04-15T04:46:02.942Z,83.09
2023-04-15T04:48:29.239Z,82.48
2023-04-15T04:50:55.520Z,82.25
2023-04-15T04:53:21.781Z,82.09
2023-04-15T04:55:48.075Z,81.96
2023-04-15T04:58:14.337Z,81.90
2023-04-15T05:00:40.661Z,81.79
2023-04-15T05:03:07.316Z,82.15
2023-04-15T05:05:33.800Z,82.55
2023-04-15T05:08:00.152Z,82.44
2023-04-15T05:10:26.501Z,82.08
2023-04-15T05:12:52.793Z,82.10
2023-04-15T05:15:19.073Z,82.63
2023-04-15T05:17:45.365Z,82.40
2023-04-15T05:20:11.922Z,82.11
2023-04-15T05:22:38.335Z,82.06
2023-04-15T05:25:04.809Z,81.89
2023-04-15T05:27:31.190Z,81.83
2023-04-15T05:29:57.588Z,81.44
2023-04-15T05:32:23.908Z,81.29
2023-04-15T05:34:50.288Z,81.34
2023-04-15T05:37:16.529Z,81.16
2023-04-15T05:39:42.884Z,81.07
2023-04-15T05:42:09.175Z,81.02
2023-04-15T05:44:35.567Z,81.00
2023-04-15T05:47:01.848Z,80.94
2023-04-15T05:49:28.464Z,80.87
2023-04-15T05:51:54.943Z,80.78
2023-04-15T05:54:21.314Z,80.48
2023-04-15T05:56:47.864Z,80.10
2023-04-15T05:59:14.274Z,79.88
2023-04-15T06:01:40.527Z,79.75
2023-04-15T06:04:06.865Z,79.53
2023-04-15T06:06:33.185Z,79.45
2023-04-15T06:08:59.870Z,78.60
2023-04-15T06:11:26.511Z,75.16
2023-04-15T06:13:53.186Z,77.84
2023-04-15T06:16:19.832Z,77.89
2023-04-15T06:18:46.221Z,75.75
2023-04-15T06:21:12.520Z,75.37
2023-04-15T06:23:38.827Z,75.99
2023-04-15T06:26:05.095Z,75.60
2023-04-15T06:28:31.410Z,75.19
2023-04-15T06:31:00.860Z,74.95
2023-04-15T06:33:27.259Z,74.20
2023-04-15T06:35:53.594Z,73.42
2023-04-15T06:38:20.999Z,72.88
2023-04-15T06:40:48.459Z,71.24
2023-04-15T06:46:09.814Z,72.97
2023-04-15T06:48:36.479Z,72.83
2023-04-15T06:51:03.558Z,72.29
2023-04-15T06:53:32.133Z,71.49
2023-04-15T06:56:05.242Z,70.98
2023-04-15T06:58:35.206Z,70.11
2023-04-15T07:01:02.143Z,70.15
2023-04-15T07:03:33.180Z,68.50
2023-04-15T07:06:00.995Z,67.31
2023-04-15T07:08:41.785Z,67.64
2023-04-15T07:11:19.072Z,68.07
2023-04-15T07:13:47.150Z,68.34
2023-04-15T07:16:18.553Z,68.13
2023-04-15T07:18:45.078Z,67.71
2023-04-15T07:21:17.254Z,67.10
2023-04-15T07:23:44.080Z,66.39
2023-04-15T07:26:10.516Z,67.42
2023-04-15T07:28:36.802Z,67.83
2023-04-15T07:31:03.528Z,67.98
2023-04-15T07:33:29.943Z,67.93
2023-04-15T07:35:56.209Z,65.70
2023-04-15T07:38:22.566Z,66.31
2023-04-15T07:40:52.620Z,66.69
2023-04-15T07:43:20.559Z,66.71
2023-04-15T07:45:46.990Z,66.55
2023-04-15T07:48:13.411Z,66.35
2023-04-15T07:50:39.869Z,65.69
2023-04-15T07:53:06.422Z,65.28
2023-04-15T07:55:32.793Z,65.82
2023-04-15T07:57:59.156Z,65.89
2023-04-15T08:00:25.521Z,66.05
2023-04-15T08:02:52.147Z,66.18
2023-04-15T08:05:19.123Z,65.28
2023-04-15T08:07:45.575Z,66.29
2023-04-15T08:10:12.004Z,66.52
2023-04-15T08:12:38.472Z,66.59
2023-04-15T08:15:05.132Z,65.38
2023-04-15T08:17:31.530Z,60.72
2023-04-15T08:19:59.440Z,64.39
2023-04-15T08:22:25.981Z,65.78
2023-04-15T08:24:52.261Z,65.92
2023-04-15T08:27:18.573Z,66.02
2023-04-15T08:29:44.845Z,65.99
2023-04-15T08:32:11.249Z,65.99
2023-04-15T08:34:37.552Z,65.93
2023-04-15T08:37:03.861Z,64.74
2023-04-15T08:39:30.301Z,63.63
2023-04-15T08:42:03.697Z,63.94
2023-04-15T08:44:32.586Z,65.25
2023-04-15T08:47:02.497Z,65.54
2023-04-15T08:49:29.407Z,65.73
2023-04-15T08:51:57.867Z,65.89
2023-04-15T08:54:24.709Z,65.83
2023-04-15T08:56:51.971Z,65.84
2023-04-15T08:59:19.129Z,64.97
2023-04-15T09:01:45.622Z,65.74
2023-04-15T09:04:12.079Z,64.98
2023-04-15T09:06:39.032Z,63.59
2023-04-15T09:09:05.354Z,64.88
2023-04-15T09:11:40.069Z,65.77
2023-04-15T09:14:06.625Z,66.01
2023-04-15T09:16:53.466Z,66.02
2023-04-15T09:19:20.682Z,65.43
2023-04-15T09:21:47.298Z,64.82
2023-04-15T09:24:13.644Z,65.37
2023-04-15T09:26:39.975Z,65.54
2023-04-15T09:29:07.671Z,65.49
2023-04-15T09:31:34.692Z,62.26
2023-04-15T09:34:01.567Z,62.00
2023-04-15T09:36:28.040Z,63.34
2023-04-15T09:38:55.960Z,62.78
2023-04-15T09:41:22.592Z,61.64
2023-04-15T09:43:48.895Z,64.27
2023-04-15T09:46:15.296Z,64.90
2023-04-15T09:48:41.969Z,64.39
2023-04-15T09:51:08.356Z,64.61
2023-04-15T09:53:35.579Z,62.11
2023-04-15T09:56:02.093Z,60.21
2023-04-15T09:58:32.810Z,62.51
2023-04-15T10:00:59.845Z,60.51
2023-04-15T10:03:27.598Z,63.17
2023-04-15T10:05:55.352Z,62.99
2023-04-15T10:08:22.984Z,59.30
2023-04-15T10:10:49.276Z,57.44
2023-04-15T10:13:17.040Z,60.09
2023-04-15T10:15:44.100Z,61.84
2023-04-15T10:18:11.004Z,61.45
2023-04-15T10:20:38.165Z,60.97
2023-04-15T10:23:05.920Z,59.65
2023-04-15T10:25:33.504Z,56.15
2023-04-15T10:27:59.976Z,49.26
2023-04-15T10:30:26.783Z,56.43
2023-04-15T10:32:53.726Z,57.20
2023-04-15T10:35:20.742Z,55.71
2023-04-15T10:37:47.261Z,52.67
2023-04-15T10:40:23.540Z,51.40
2023-04-15T10:42:49.921Z,54.82
2023-04-15T10:45:16.414Z,54.67
2023-04-15T10:47:42.918Z,53.69
2023-04-15T10:50:10.229Z,44.92
2023-04-15T10:52:39.964Z,46.35
2023-04-15T10:55:12.230Z,44.62
2023-04-15T10:57:39.847Z,43.65
2023-04-15T11:00:10.271Z,42.64
2023-04-15T11:02:53.843Z,49.45
2023-04-15T11:05:21.369Z,50.65
2023-04-15T11:07:49.337Z,50.01
2023-04-15T11:10:24.797Z,52.33
2023-04-15T11:12:52.329Z,51.35
2023-04-15T11:15:28.119Z,47.32
2023-04-15T11:17:54.888Z,41.28
2023-04-15T11:20:21.153Z,43.56
2023-04-15T11:22:51.224Z,45.03
2023-04-15T11:25:24.060Z,44.77
2023-04-15T11:27:50.360Z,46.10
2023-04-15T11:30:20.636Z,45.10
2023-04-15T11:32:47.643Z,44.14
2023-04-15T11:35:13.982Z,46.11
2023-04-15T11:37:40.384Z,48.49
2023-04-15T11:40:08.192Z,38.91
2023-04-15T11:42:48.563Z,42.45
2023-04-15T11:45:16.163Z,34.61
2023-04-15T11:47:42.522Z,34.72
2023-04-15T11:50:21.956Z,39.36
2023-04-15T11:52:58.720Z,41.28
2023-04-15T11:55:25.441Z,39.49
2023-04-15T11:58:10.799Z,35.11
2023-04-15T12:00:37.834Z,40.54
2023-04-15T12:03:13.882Z,40.26
2023-04-15T12:05:59.057Z,39.23
2023-04-15T12:08:25.463Z,40.17
2023-04-15T12:10:58.148Z,39.10
2023-04-15T12:13:26.954Z,37.30
2023-04-15T12:15:54.925Z,33.42
2023-04-15T12:18:21.292Z,37.98
2023-04-15T12:20:47.658Z,34.19
2023-04-15T12:23:18.483Z,38.63
2023-04-15T12:25:50.593Z,38.73
2023-04-15T12:28:16.872Z,38.91
2023-04-15T12:30:50.163Z,40.43
2023-04-15T12:33:17.607Z,41.72
2023-04-15T12:35:43.920Z,41.90
2023-04-15T12:38:10.273Z,41.89
2023-04-15T12:40:36.722Z,42.25
2023-04-15T12:43:03.137Z,42.57
2023-04-15T12:45:30.028Z,43.06
2023-04-15T12:47:56.416Z,43.44
2023-04-15T12:50:22.721Z,43.95
2023-04-15T12:52:49.107Z,44.27
2023-04-15T12:55:16.073Z,44.61
2023-04-15T12:57:42.459Z,44.93
2023-04-15T13:00:09.128Z,45.37
2023-04-15T13:02:35.814Z,45.69
2023-04-15T13:05:02.245Z,46.34
2023-04-15T13:07:28.647Z,47.16
2023-04-15T13:09:54.922Z,47.51
2023-04-15T13:12:21.214Z,47.71
2023-04-15T13:14:47.503Z,48.41
2023-04-15T13:17:13.836Z,49.03
2023-04-15T13:19:40.091Z,49.39
2023-04-15T13:22:06.946Z,49.18
2023-04-15T13:24:33.356Z,49.83
2023-04-15T13:26:59.576Z,49.14
2023-04-15T13:29:25.876Z,49.63
2023-04-15T13:31:52.397Z,48.89
2023-04-15T13:34:18.753Z,48.93
2023-04-15T13:36:45.167Z,48.62
2023-04-15T13:39:11.541Z,48.46
2023-04-15T13:41:37.766Z,44.94
2023-04-15T13:44:04.408Z,41.43
2023-04-15T13:46:30.855Z,34.53
2023-04-15T13:48:57.090Z,32.17
2023-04-15T13:51:23.462Z,30.49
2023-04-15T13:53:49.779Z,35.29
2023-04-15T13:56:16.115Z,33.90
2023-04-15T13:58:42.532Z,35.43
2023-04-15T14:01:09.113Z,34.67
2023-04-15T14:03:35.548Z,36.22
2023-04-15T14:06:02.315Z,37.42
2023-04-15T14:08:29.715Z,37.36
2023-04-15T14:10:55.986Z,38.54
2023-04-15T14:13:25.170Z,39.13
2023-04-15T14:15:51.845Z,39.60
2023-04-15T14:18:18.173Z,39.31
2023-04-15T14:20:44.813Z,37.77
2023-04-15T14:23:11.531Z,34.55
2023-04-15T14:25:37.823Z,30.13
2023-04-15T14:28:04.448Z,31.06
2023-04-15T14:30:31.127Z,32.84
2023-04-15T14:32:57.470Z,28.24
2023-04-15T14:35:23.872Z,26.91
2023-04-15T14:37:50.957Z,27.90
2023-04-15T14:40:17.372Z,30.61
2023-04-15T14:42:43.685Z,32.31
2023-04-15T14:45:11.081Z,32.69
2023-04-15T14:47:37.452Z,32.34
2023-04-15T14:50:03.983Z,32.51
2023-04-15T14:52:31.150Z,34.11
2023-04-15T14:54:57.466Z,35.84
2023-04-15T14:57:23.938Z,37.69
2023-04-15T14:59:50.332Z,40.36
2023-04-15T15:02:31.647Z,40.34
2023-04-15T15:05:04.032Z,41.48
2023-04-15T15:07:30.433Z,42.49
2023-04-15T15:09:56.705Z,43.94
2023-04-15T15:12:23.006Z,44.21
2023-04-15T15:14:49.433Z,44.31
2023-04-15T15:17:15.877Z,45.87
2023-04-15T15:19:42.485Z,45.53
2023-04-15T15:22:08.743Z,46.14
2023-04-15T15:24:34.995Z,45.65
2023-04-15T15:27:01.757Z,44.91
2023-04-15T15:29:28.084Z,42.18
2023-04-15T15:31:54.448Z,39.62
2023-04-15T15:34:21.106Z,40.17
2023-04-15T15:36:47.761Z,39.62
2023-04-15T15:39:14.069Z,41.04
2023-04-15T15:41:40.744Z,42.52
2023-04-15T15:44:07.023Z,43.45
2023-04-15T15:46:33.321Z,44.67
2023-04-15T15:49:01.535Z,46.18
2023-04-15T15:51:27.887Z,47.91
2023-04-15T15:53:54.161Z,47.87
2023-04-15T15:56:20.720Z,48.94
2023-04-15T15:58:47.081Z,49.95
2023-04-15T16:01:13.460Z,49.28
2023-04-15T16:03:40.001Z,50.16
2023-04-15T16:06:06.369Z,50.80
2023-04-15T16:08:32.637Z,50.51
2023-04-15T16:10:59.336Z,50.41
2023-04-15T16:13:25.762Z,50.07
2023-04-15T16:15:52.060Z,50.54
2023-04-15T16:18:18.530Z,52.63
2023-04-15T16:20:44.944Z,52.46
2023-04-15T16:23:12.750Z,51.42
2023-04-15T16:25:40.389Z,51.91
2023-04-15T16:28:18.496Z,49.52
2023-04-15T16:30:49.417Z,50.07
2023-04-15T16:33:15.749Z,49.78
2023-04-15T16:35:42.012Z,49.82
2023-04-15T16:38:08.488Z,50.32
2023-04-15T16:40:36.057Z,51.50
2023-04-15T16:43:02.777Z,51.37
2023-04-15T16:45:29.086Z,52.46
2023-04-15T16:47:55.420Z,52.09
2023-04-15T16:50:22.006Z,52.42
2023-04-15T16:56:16.876Z,53.78
2023-04-15T16:58:43.580Z,54.11
2023-04-15T17:01:09.990Z,53.66
2023-04-15T17:03:36.706Z,53.73
2023-04-15T17:06:03.815Z,54.23
2023-04-15T17:08:30.368Z,54.26
2023-04-15T17:11:00.225Z,55.56
2023-04-15T17:13:26.645Z,57.85
2023-04-15T17:15:55.624Z,56.24
2023-04-15T17:18:24.050Z,55.95
2023-04-15T17:21:03.352Z,56.28
2023-04-15T17:23:29.866Z,56.29
2023-04-15T17:25:57.375Z,55.86
2023-04-15T17:28:24.106Z,59.39
2023-04-15T17:30:53.013Z,59.83
2023-04-15T18:01:59.507Z,70.03
2023-04-15T18:04:26.896Z,71.26
2023-04-15T18:06:53.889Z,71.47
2023-04-15T18:09:20.853Z,68.75
2023-04-15T18:11:47.199Z,68.04
2023-04-15T18:14:33.033Z,70.17
2023-04-15T18:17:10.587Z,74.56
2023-04-15T18:19:36.946Z,75.66
2023-04-15T18:22:04.878Z,75.91
2023-04-15T18:24:32.130Z,73.80
2023-04-15T18:26:58.470Z,73.03
2023-04-15T18:29:27.290Z,71.31
2023-04-15T18:31:54.475Z,70.34
2023-04-15T18:34:23.861Z,70.16
2023-04-15T18:36:50.274Z,70.93
2023-04-15T18:39:17.074Z,71.40
2023-04-15T18:41:43.743Z,70.95
2023-04-15T18:44:10.232Z,71.52
2023-04-15T18:46:37.017Z,71.31
2023-04-15T18:49:03.988Z,71.68
2023-04-15T18:51:30.747Z,72.74
2023-04-15T18:53:57.771Z,73.38
2023-04-15T18:56:24.748Z,72.38
2023-04-15T18:59:28.559Z,73.24
2023-04-15T19:01:44.746Z,73.32
2023-04-15T19:04:11.937Z,73.42
2023-04-15T19:06:56.250Z,73.52
2023-04-15T19:09:22.861Z,73.66
2023-04-15T19:11:49.254Z,74.04
2023-04-15T19:14:16.453Z,74.31
2023-04-15T19:19:32.072Z,77.33
2023-04-15T19:22:02.557Z,78.22
2023-04-15T19:24:35.667Z,77.04
2023-04-15T19:27:02.181Z,76.14
2023-04-15T19:29:29.046Z,75.22
2023-04-15T19:32:01.452Z,75.79
2023-04-15T19:34:27.970Z,77.71
2023-04-15T19:36:54.480Z,79.24
2023-04-15T19:39:21.296Z,76.67
2023-04-15T19:41:48.104Z,75.76
2023-04-15T19:44:16.031Z,76.29
2023-04-15T19:46:43.586Z,76.28
2023-04-15T19:49:10.232Z,75.99
2023-04-15T19:51:37.675Z,76.86
2023-04-15T19:54:04.323Z,76.46
2023-04-15T19:56:32.843Z,77.60
2023-04-15T19:59:01.046Z,79.23
2023-04-15T20:01:27.548Z,79.32
2023-04-15T20:03:54.184Z,78.51
2023-04-15T20:06:21.940Z,77.78
2023-04-15T20:08:48.306Z,76.96
2023-04-15T20:11:15.179Z,76.25
2023-04-15T20:13:41.664Z,75.81
2023-04-15T20:21:59.072Z,77.30
2023-04-15T20:24:30.552Z,78.08
2023-04-15T20:26:57.140Z,79.14
2023-04-15T20:29:23.517Z,79.91
2023-04-15T20:31:49.952Z,79.89
2023-04-15T20:34:16.462Z,80.37
2023-04-15T20:36:42.920Z,80.73
2023-04-15T20:39:09.349Z,80.58
2023-04-15T20:41:36.033Z,78.69
2023-04-15T20:44:05.535Z,80.01
2023-04-15T20:46:44.423Z,79.45
2023-04-15T20:49:10.803Z,78.76
2023-04-15T20:51:40.433Z,78.86
2023-04-15T20:54:14.108Z,79.00
2023-04-15T20:56:40.858Z,79.45
2023-04-15T20:59:07.735Z,79.44
2023-04-15T21:01:35.542Z,80.99
2023-04-15T21:04:01.956Z,81.18
2023-04-15T21:06:28.413Z,82.40
2023-04-15T21:08:54.858Z,82.42
2023-04-15T21:11:40.621Z,82.94
2023-04-15T21:14:07.561Z,80.79
2023-04-15T21:16:34.060Z,81.00
2023-04-15T21:19:00.401Z,80.78
2023-04-15T21:21:26.982Z,80.64
2023-04-15T21:23:54.777Z,80.70
2023-04-15T21:26:21.036Z,81.16
2023-04-15T21:28:47.312Z,81.13
2023-04-15T21:31:13.755Z,80.53
2023-04-15T21:33:40.045Z,80.30
2023-04-15T21:36:06.572Z,80.21
2023-04-15T21:38:33.042Z,80.16
2023-04-15T21:40:59.335Z,80.78
2023-04-15T21:43:25.803Z,80.81
2023-04-15T21:46:22.418Z,81.65
2023-04-15T21:48:38.959Z,81.62
2023-04-15T21:51:05.587Z,80.50
2023-04-15T21:53:31.927Z,80.27
2023-04-15T21:55:58.250Z,80.11
2023-04-15T21:58:24.541Z,79.97
2023-04-15T22:00:51.428Z,79.95
2023-04-15T22:03:17.802Z,79.76
2023-04-15T22:05:44.721Z,79.57
2023-04-15T22:08:11.262Z,79.39
2023-04-15T22:10:37.981Z,79.50
2023-04-15T22:13:04.847Z,79.89
2023-04-15T22:15:31.110Z,80.61
2023-04-15T22:17:57.518Z,82.00
2023-04-15T22:20:23.865Z,82.03
2023-04-15T22:22:50.166Z,82.18
2023-04-15T22:25:21.029Z,80.83
2023-04-15T22:27:47.334Z,80.12
2023-04-15T22:30:13.647Z,79.96
2023-04-15T22:32:40.125Z,79.76
2023-04-15T22:35:06.759Z,79.65
2023-04-15T22:37:33.062Z,79.57
2023-04-15T22:39:59.500Z,79.65
2023-04-15T22:42:25.930Z,80.43
2023-04-15T22:44:52.226Z,81.23
2023-04-15T22:47:18.826Z,80.88
2023-04-15T22:49:45.139Z,80.70
2023-04-15T22:52:17.159Z,80.36
2023-04-15T22:54:50.036Z,80.00
2023-04-15T22:57:16.495Z,79.89
2023-04-15T22:59:42.733Z,80.00
2023-04-15T23:02:09.153Z,80.24
2023-04-15T23:04:35.613Z,80.81
2023-04-15T23:07:02.007Z,81.88
2023-04-15T23:09:28.330Z,82.46
2023-04-15T23:11:54.787Z,81.58
2023-04-15T23:14:22.343Z,80.75
2023-04-15T23:16:48.684Z,80.30
2023-04-15T23:19:14.976Z,80.07
2023-04-15T23:21:41.231Z,80.00
2023-04-15T23:24:07.555Z,80.13
2023-04-15T23:26:33.978Z,80.07
2023-04-15T23:29:00.318Z,80.34
2023-04-15T23:31:26.702Z,80.35
2023-04-15T23:33:52.996Z,80.09
2023-04-15T23:36:19.294Z,80.07
2023-04-15T23:38:45.586Z,80.00
2023-04-15T23:41:11.818Z,80.05
2023-04-15T23:43:38.121Z,80.14
2023-04-15T23:46:04.643Z,80.27
2023-04-15T23:48:30.873Z,80.44
2023-04-15T23:50:57.197Z,80.35
2023-04-15T23:53:23.481Z,80.36
2023-04-15T23:55:49.705Z,80.27
2023-04-15T23:58:15.978Z,80.32
